Time;durP1;ratioP1;P1;durP2;ratioP2;P2;SDS_P1;SDS_P2;PMS_P1;PMS_P2;Temp;Humidity;BMP_temperature;BMP_pressure;BME280_temperature;BME280_humidity;BME280_pressure;Samples;Min_cycle;Max_cycle;Signal;HPM_P1;HPM_P2
2023/03/29 00:02:20;;;;;;;4.10;1.52;;;5.90;99.90;;;;;;5012911;28;20033;-73
2023/03/29 00:04:45;;;;;;;3.55;1.20;;;5.90;99.90;;;;;;5002243;28;20029;-72
2023/03/29 00:07:13;;;;;;;3.60;1.33;;;5.90;99.90;;;;;;5007249;28;20466;-73
2023/03/29 00:09:38;;;;;;;6.22;1.92;;;6.00;99.90;;;;;;4991841;28;20037;-74
2023/03/29 00:12:04;;;;;;;4.55;1.90;;;5.90;99.90;;;;;;4995206;28;20022;-73
2023/03/29 00:14:30;;;;;;;4.90;1.30;;;5.90;99.90;;;;;;5012216;28;20050;-73
2023/03/29 00:16:57;;;;;;;5.60;1.60;;;5.90;99.90;;;;;;4997904;28;20031;-73
2023/03/29 00:19:22;;;;;;;4.10;1.38;;;5.90;99.90;;;;;;5010371;28;20034;-73
2023/03/29 00:21:48;;;;;;;4.65;1.50;;;5.90;99.90;;;;;;5013403;28;20032;-72
2023/03/29 00:24:13;;;;;;;5.28;1.50;;;6.00;99.90;;;;;;5004020;28;20103;-73
2023/03/29 00:26:39;;;;;;;5.22;1.90;;;5.90;99.90;;;;;;5004981;28;20609;-73
2023/03/29 00:29:05;;;;;;;5.47;1.60;;;6.00;99.90;;;;;;5010849;28;20026;-73
2023/03/29 00:31:30;;;;;;;3.85;1.45;;;6.00;99.90;;;;;;5013341;28;20500;-73
2023/03/29 00:33:56;;;;;;;3.55;1.38;;;6.00;99.90;;;;;;5012799;28;20033;-73
2023/03/29 00:36:22;;;;;;;5.18;1.25;;;6.00;99.90;;;;;;5011257;28;20109;-73
2023/03/29 00:38:47;;;;;;;4.97;1.70;;;6.00;99.90;;;;;;4997337;28;20529;-73
2023/03/29 00:41:13;;;;;;;6.25;1.58;;;6.00;99.90;;;;;;5029370;28;20370;-73
2023/03/29 00:44:00;;;;;;;6.65;1.92;;;6.10;99.90;;;;;;5000049;28;20084;-73
2023/03/29 00:46:28;;;;;;;3.33;1.23;;;6.00;99.90;;;;;;4999388;28;20026;-73
2023/03/29 00:49:01;;;;;;;6.13;1.73;;;6.10;99.90;;;;;;5003965;28;20120;-73
2023/03/29 00:51:31;;;;;;;4.55;1.48;;;6.10;99.90;;;;;;5003458;28;20475;-73
2023/03/29 00:54:00;;;;;;;6.38;1.83;;;6.10;99.90;;;;;;5014990;28;20029;-73
2023/03/29 00:56:30;;;;;;;4.70;1.48;;;6.10;99.90;;;;;;5009826;28;20486;-73
2023/03/29 00:58:58;;;;;;;5.00;1.77;;;6.10;99.90;;;;;;5006730;28;20026;-73
2023/03/29 01:01:44;;;;;;;5.05;1.55;;;6.10;99.90;;;;;;5011588;28;20564;-73
2023/03/29 01:04:17;;;;;;;4.55;1.95;;;6.10;99.90;;;;;;5002064;28;20022;-73
2023/03/29 01:06:48;;;;;;;4.43;1.38;;;6.10;99.90;;;;;;4998714;28;20073;-73
2023/03/29 01:09:17;;;;;;;5.85;1.85;;;6.10;99.90;;;;;;5003134;28;20025;-73
2023/03/29 01:11:50;;;;;;;6.53;2.00;;;6.20;99.90;;;;;;5008499;28;20025;-73
2023/03/29 01:14:21;;;;;;;7.05;2.55;;;6.20;99.90;;;;;;5012889;28;20065;-73
2023/03/29 01:16:47;;;;;;;3.73;1.40;;;6.20;99.90;;;;;;5009730;28;20026;-74
2023/03/29 01:19:17;;;;;;;4.43;2.08;;;6.20;99.90;;;;;;4999493;28;20037;-73
2023/03/29 01:22:00;;;;;;;5.78;1.70;;;6.20;99.90;;;;;;5012463;28;20155;-73
2023/03/29 01:24:56;;;;;;;7.30;1.90;;;6.20;99.90;;;;;;5007677;28;20029;-73
2023/03/29 01:27:46;;;;;;;4.78;2.35;;;6.30;99.90;;;;;;5001773;28;20110;-73
2023/03/29 01:30:17;;;;;;;3.33;1.40;;;6.30;99.90;;;;;;4994897;28;20029;-73
2023/03/29 01:33:01;;;;;;;4.20;2.17;;;6.30;99.90;;;;;;5009628;28;20026;-73
2023/03/29 01:35:41;;;;;;;2.95;1.27;;;6.30;99.90;;;;;;5010301;28;20037;-73
2023/03/29 01:38:17;;;;;;;4.88;1.40;;;6.30;99.90;;;;;;5004293;28;20052;-73
2023/03/29 01:40:42;;;;;;;5.88;2.10;;;6.30;99.90;;;;;;5008875;28;20026;-73
2023/03/29 01:43:46;;;;;;;5.35;1.38;;;6.30;99.90;;;;;;5012954;28;20034;-73
2023/03/29 01:46:32;;;;;;;5.93;1.33;;;6.30;99.90;;;;;;5008965;28;20030;-73
2023/03/29 01:49:31;;;;;;;5.03;1.60;;;6.30;99.90;;;;;;5038561;28;20034;-73
2023/03/29 01:52:13;;;;;;;4.50;1.20;;;6.40;99.90;;;;;;5007387;28;20030;-73
2023/03/29 01:55:08;;;;;;;6.50;1.40;;;6.40;99.90;;;;;;5001462;28;20038;-73
2023/03/29 01:57:37;;;;;;;3.47;1.45;;;6.40;99.90;;;;;;5011478;28;20049;-73
2023/03/29 02:00:08;;;;;;;5.03;1.55;;;6.40;99.90;;;;;;5003882;28;20030;-73
2023/03/29 02:02:35;;;;;;;5.32;1.60;;;6.40;99.90;;;;;;5016567;28;20147;-73
2023/03/29 02:05:01;;;;;;;3.33;1.33;;;6.40;99.90;;;;;;5011257;28;20044;-73
2023/03/29 02:07:36;;;;;;;4.45;1.70;;;6.40;99.90;;;;;;5005950;28;20494;-73
2023/03/29 02:10:02;;;;;;;4.85;1.90;;;6.50;99.90;;;;;;5004327;28;20052;-73
2023/03/29 02:12:28;;;;;;;4.65;1.95;;;6.50;99.90;;;;;;5037877;28;20401;-73
2023/03/29 02:14:56;;;;;;;7.75;1.92;;;6.50;99.90;;;;;;5007775;28;20030;-73
2023/03/29 02:17:24;;;;;;;4.63;1.67;;;6.50;99.90;;;;;;4996188;28;20038;-73
2023/03/29 02:19:56;;;;;;;6.47;1.52;;;6.50;99.90;;;;;;4998434;28;20026;-73
2023/03/29 02:22:28;;;;;;;4.88;1.33;;;6.60;99.90;;;;;;5007866;28;20025;-73
2023/03/29 02:24:57;;;;;;;4.75;1.95;;;6.60;99.90;;;;;;5009125;28;20049;-73
2023/03/29 02:27:25;;;;;;;6.35;1.42;;;6.60;99.90;;;;;;4999259;28;20030;-73
2023/03/29 02:29:50;;;;;;;4.68;1.63;;;6.60;99.90;;;;;;4999994;28;20149;-73
2023/03/29 02:32:22;;;;;;;6.40;2.47;;;6.60;99.90;;;;;;5009204;28;20029;-73
2023/03/29 02:35:03;;;;;;;4.70;1.42;;;6.60;99.90;;;;;;5016915;28;20034;-74
2023/03/29 02:37:33;;;;;;;7.97;1.88;;;6.60;99.90;;;;;;4999282;28;20041;-73
2023/03/29 02:39:59;;;;;;;3.90;1.63;;;6.60;99.90;;;;;;5008947;28;20032;-73
2023/03/29 02:42:26;;;;;;;4.28;1.30;;;6.60;99.90;;;;;;5011930;28;20401;-73
2023/03/29 02:44:56;;;;;;;10.15;2.03;;;6.60;99.90;;;;;;5011328;28;20093;-73
2023/03/29 02:47:35;;;;;;;4.80;1.67;;;6.60;99.90;;;;;;5003550;28;20077;-73
2023/03/29 02:50:01;;;;;;;5.43;1.73;;;6.60;99.90;;;;;;5004902;28;20022;-73
2023/03/29 02:52:34;;;;;;;4.53;2.13;;;6.60;99.90;;;;;;5002375;28;20484;-72
2023/03/29 02:55:01;;;;;;;4.03;1.63;;;6.60;99.90;;;;;;5003495;28;20030;-73
2023/03/29 02:57:28;;;;;;;7.10;2.25;;;6.60;99.90;;;;;;5006258;28;20041;-73
2023/03/29 02:59:57;;;;;;;6.20;1.85;;;6.60;99.90;;;;;;5007695;28;20535;-73
2023/03/29 03:02:26;;;;;;;5.22;1.70;;;6.60;99.90;;;;;;5002864;28;20072;-73
2023/03/29 03:04:52;;;;;;;7.28;2.03;;;6.60;99.90;;;;;;5011056;28;20117;-73
2023/03/29 03:07:18;;;;;;;6.65;2.13;;;6.60;99.90;;;;;;5005257;28;20033;-73
2023/03/29 03:09:45;;;;;;;9.10;2.28;;;6.60;99.90;;;;;;5003444;28;20088;-73
2023/03/29 03:12:10;;;;;;;6.60;1.92;;;6.70;99.90;;;;;;5004001;28;20069;-73
2023/03/29 03:14:36;;;;;;;4.28;1.75;;;6.70;99.90;;;;;;5014744;28;20483;-73
2023/03/29 03:17:01;;;;;;;7.07;2.15;;;6.70;99.90;;;;;;5006437;28;20029;-73
2023/03/29 03:19:27;;;;;;;4.28;1.63;;;6.70;99.90;;;;;;5002218;28;20471;-73
2023/03/29 03:21:53;;;;;;;4.60;1.83;;;6.70;99.90;;;;;;5001941;28;20462;-73
2023/03/29 03:24:18;;;;;;;7.93;2.60;;;6.70;99.90;;;;;;5011032;28;20026;-73
2023/03/29 03:26:48;;;;;;;6.57;2.13;;;6.80;99.90;;;;;;5003809;28;20559;-73
2023/03/29 03:29:15;;;;;;;4.78;1.73;;;6.70;99.90;;;;;;5000368;28;20023;-73
2023/03/29 03:31:40;;;;;;;5.22;1.83;;;6.80;99.90;;;;;;5010918;28;20045;-73
2023/03/29 03:34:10;;;;;;;4.03;2.15;;;6.80;99.90;;;;;;4999339;28;20038;-73
2023/03/29 03:36:36;;;;;;;4.45;1.60;;;6.80;99.90;;;;;;5012155;28;20030;-73
2023/03/29 03:39:04;;;;;;;5.57;2.03;;;6.80;99.90;;;;;;4993222;28;20164;-73
2023/03/29 03:41:31;;;;;;;7.75;1.88;;;6.80;99.90;;;;;;5006703;28;20029;-73
2023/03/29 03:43:57;;;;;;;7.45;1.80;;;6.80;99.90;;;;;;5003996;28;20022;-73
2023/03/29 03:46:22;;;;;;;5.60;1.80;;;6.80;99.90;;;;;;5007338;28;20105;-73
2023/03/29 03:48:48;;;;;;;5.22;1.70;;;6.80;99.90;;;;;;5007615;28;20026;-73
2023/03/29 03:51:14;;;;;;;4.43;2.22;;;6.80;99.90;;;;;;5029259;28;20029;-73
2023/03/29 03:53:39;;;;;;;9.13;2.65;;;6.80;99.90;;;;;;5014244;28;20037;-73
2023/03/29 03:56:08;;;;;;;6.35;1.85;;;6.80;99.90;;;;;;5017365;28;20048;-73
2023/03/29 03:58:35;;;;;;;6.95;1.90;;;6.80;99.90;;;;;;5031335;28;20052;-73
2023/03/29 04:01:00;;;;;;;6.13;2.20;;;6.80;99.90;;;;;;5018985;28;20029;-73
2023/03/29 04:03:26;;;;;;;5.38;2.75;;;6.80;99.90;;;;;;5012357;28;20514;-73
2023/03/29 04:05:52;;;;;;;4.38;2.10;;;6.80;99.90;;;;;;5012645;28;20034;-73
2023/03/29 04:08:18;;;;;;;5.53;1.27;;;6.90;99.90;;;;;;5017418;28;20018;-73
2023/03/29 04:10:52;;;;;;;5.13;1.70;;;6.90;99.90;;;;;;5002752;28;20116;-73
2023/03/29 04:13:17;;;;;;;7.47;1.77;;;6.90;99.90;;;;;;5013406;28;20397;-73
2023/03/29 04:15:44;;;;;;;4.45;1.27;;;6.90;99.90;;;;;;5009193;28;20151;-73
2023/03/29 04:18:11;;;;;;;3.63;1.30;;;6.90;99.90;;;;;;5008114;28;20471;-73
2023/03/29 04:20:37;;;;;;;5.38;1.88;;;6.90;99.90;;;;;;5011150;28;20532;-73
2023/03/29 04:23:03;;;;;;;3.78;1.50;;;7.00;99.90;;;;;;5013824;28;20104;-73
2023/03/29 04:25:29;;;;;;;5.97;1.88;;;7.00;99.90;;;;;;5021316;28;20109;-73
2023/03/29 04:27:54;;;;;;;5.72;1.60;;;6.90;99.90;;;;;;5011331;28;20091;-73
2023/03/29 04:30:20;;;;;;;5.13;1.30;;;7.00;99.90;;;;;;4999930;28;20104;-73
2023/03/29 04:32:46;;;;;;;3.30;1.48;;;6.90;99.90;;;;;;5011813;28;20022;-73
2023/03/29 04:35:12;;;;;;;5.65;2.08;;;7.00;99.90;;;;;;5007074;28;20039;-74
2023/03/29 04:37:39;;;;;;;4.90;1.70;;;7.00;99.90;;;;;;5012282;28;20109;-73
2023/03/29 04:40:12;;;;;;;4.68;1.60;;;7.00;99.90;;;;;;5021642;28;20178;-73
2023/03/29 04:42:37;;;;;;;5.65;1.83;;;7.00;99.90;;;;;;5009950;28;20048;-73
2023/03/29 04:45:06;;;;;;;3.92;1.67;;;7.00;99.90;;;;;;5006577;28;20481;-73
2023/03/29 04:47:31;;;;;;;3.95;1.30;;;7.00;99.90;;;;;;5005779;28;20510;-73
2023/03/29 04:49:57;;;;;;;4.35;1.67;;;7.00;99.90;;;;;;5008188;28;20161;-73
2023/03/29 04:52:22;;;;;;;3.28;1.35;;;7.00;99.90;;;;;;5021252;28;20033;-73
2023/03/29 04:54:48;;;;;;;4.68;1.40;;;7.00;99.90;;;;;;5006608;28;20030;-73
2023/03/29 04:57:13;;;;;;;6.70;1.60;;;7.00;99.90;;;;;;5013770;28;20026;-74
2023/03/29 04:59:39;;;;;;;4.65;1.23;;;7.00;99.90;;;;;;5008915;28;20478;-73
2023/03/29 05:02:06;;;;;;;6.13;1.48;;;7.00;99.90;;;;;;5011562;28;20013;-74
2023/03/29 05:04:31;;;;;;;6.18;1.58;;;7.00;99.90;;;;;;5025774;28;20052;-74
2023/03/29 05:06:57;;;;;;;5.20;1.23;;;7.10;99.90;;;;;;5007767;28;20022;-74
2023/03/29 05:09:24;;;;;;;4.30;1.88;;;7.10;99.90;;;;;;5008835;28;20109;-74
2023/03/29 05:11:50;;;;;;;6.22;1.50;;;7.10;99.90;;;;;;5019017;28;20168;-74
2023/03/29 05:14:16;;;;;;;4.53;1.73;;;7.10;99.90;;;;;;4994899;28;20034;-74
2023/03/29 05:16:42;;;;;;;7.10;1.52;;;7.20;99.90;;;;;;5013768;28;20048;-74
2023/03/29 05:19:08;;;;;;;6.38;1.60;;;7.20;99.90;;;;;;5021889;28;20080;-73
2023/03/29 05:21:34;;;;;;;4.00;1.67;;;7.20;99.90;;;;;;5008562;28;20046;-74
2023/03/29 05:24:00;;;;;;;4.68;1.77;;;7.10;99.90;;;;;;5012053;28;20030;-74
2023/03/29 05:26:26;;;;;;;4.88;1.40;;;7.20;99.90;;;;;;5012545;28;20030;-74
2023/03/29 05:28:52;;;;;;;4.13;1.63;;;7.20;99.90;;;;;;5009509;28;20044;-74
2023/03/29 05:31:18;;;;;;;3.92;1.70;;;7.20;99.90;;;;;;5009644;28;20026;-74
2023/03/29 05:33:46;;;;;;;3.75;1.45;;;7.20;99.90;;;;;;5006028;28;20482;-74
2023/03/29 05:36:14;;;;;;;5.60;1.88;;;7.20;99.90;;;;;;5004834;28;20038;-74
2023/03/29 05:38:43;;;;;;;5.97;1.60;;;7.20;99.90;;;;;;5012418;28;20563;-73
2023/03/29 05:41:10;;;;;;;3.58;1.52;;;7.20;99.90;;;;;;5019524;28;20033;-74
2023/03/29 05:43:35;;;;;;;4.00;1.63;;;7.20;99.90;;;;;;5013360;28;20030;-74
2023/03/29 05:46:01;;;;;;;4.47;1.45;;;7.30;99.90;;;;;;5016201;28;20113;-74
2023/03/29 05:48:27;;;;;;;5.55;2.00;;;7.30;99.90;;;;;;5009723;28;20104;-74
2023/03/29 05:50:55;;;;;;;5.63;2.05;;;7.30;99.90;;;;;;5013859;28;20029;-74
2023/03/29 05:53:22;;;;;;;10.75;2.00;;;7.40;99.90;;;;;;5015985;28;20036;-74
2023/03/29 05:55:48;;;;;;;4.60;1.67;;;7.30;99.90;;;;;;5000598;28;20180;-74
2023/03/29 05:58:16;;;;;;;5.25;2.28;;;7.40;99.90;;;;;;5002780;28;20026;-74
2023/03/29 06:00:42;;;;;;;6.15;1.40;;;7.40;99.90;;;;;;5011942;28;20030;-73
2023/03/29 06:03:18;;;;;;;4.93;1.70;;;7.40;99.90;;;;;;5010839;28;20068;-74
2023/03/29 06:05:48;;;;;;;4.15;1.52;;;7.50;99.90;;;;;;4999012;28;20117;-73
2023/03/29 06:08:14;;;;;;;4.85;1.50;;;7.50;99.90;;;;;;5011772;28;20049;-74
2023/03/29 06:10:41;;;;;;;5.68;1.65;;;7.50;99.90;;;;;;5012202;28;20483;-74
2023/03/29 06:13:06;;;;;;;4.10;1.75;;;7.50;99.90;;;;;;5006281;28;20435;-73
2023/03/29 06:15:33;;;;;;;5.35;1.70;;;7.50;99.90;;;;;;5006593;28;20068;-74
2023/03/29 06:17:59;;;;;;;6.07;2.03;;;7.60;99.90;;;;;;5016313;28;20054;-74
2023/03/29 06:20:25;;;;;;;5.65;1.88;;;7.60;99.90;;;;;;5012444;28;20511;-73
2023/03/29 06:22:51;;;;;;;6.72;1.98;;;7.60;99.90;;;;;;5006032;28;20026;-73
2023/03/29 06:25:18;;;;;;;6.32;1.77;;;7.60;99.90;;;;;;5005840;28;20366;-74
2023/03/29 06:27:45;;;;;;;3.63;1.77;;;7.60;99.90;;;;;;5011173;28;20080;-74
2023/03/29 06:30:11;;;;;;;5.05;1.77;;;7.60;99.90;;;;;;5004114;28;20030;-74
2023/03/29 06:32:37;;;;;;;6.43;2.20;;;7.60;99.90;;;;;;5007057;28;20034;-74
2023/03/29 06:35:03;;;;;;;3.55;1.63;;;7.60;99.90;;;;;;4997611;28;20089;-75
2023/03/29 06:37:30;;;;;;;6.20;2.22;;;7.60;99.90;;;;;;4990566;28;20026;-73
2023/03/29 06:39:56;;;;;;;5.90;2.25;;;7.60;99.90;;;;;;5000711;28;20081;-73
2023/03/29 06:42:22;;;;;;;7.25;2.10;;;7.60;99.90;;;;;;5012016;28;20112;-74
2023/03/29 06:44:48;;;;;;;7.68;2.45;;;7.70;99.90;;;;;;5005724;28;20428;-73
2023/03/29 06:47:16;;;;;;;6.15;2.17;;;7.70;99.90;;;;;;4997109;28;20148;-74
2023/03/29 06:49:41;;;;;;;5.35;2.35;;;7.70;99.90;;;;;;5010261;28;20497;-74
2023/03/29 06:52:08;;;;;;;5.75;2.38;;;7.80;99.90;;;;;;5005549;28;20029;-74
2023/03/29 06:54:33;;;;;;;7.13;1.98;;;7.80;99.90;;;;;;5003354;28;20029;-74
2023/03/29 06:57:00;;;;;;;9.15;2.15;;;7.90;99.90;;;;;;5013230;28;20485;-74
2023/03/29 06:59:25;;;;;;;7.22;1.85;;;7.90;99.90;;;;;;5008076;28;20092;-74
2023/03/29 07:01:53;;;;;;;5.65;1.85;;;8.00;99.90;;;;;;5011023;28;20033;-73
2023/03/29 07:04:21;;;;;;;6.43;2.30;;;8.10;99.90;;;;;;5013428;28;20026;-73
2023/03/29 07:06:50;;;;;;;6.32;2.20;;;8.10;99.90;;;;;;5009549;28;20076;-72
2023/03/29 07:09:15;;;;;;;5.35;2.42;;;8.20;99.90;;;;;;5006052;28;20022;-73
2023/03/29 07:11:42;;;;;;;6.88;2.63;;;8.20;99.90;;;;;;5011451;28;20088;-74
2023/03/29 07:14:08;;;;;;;5.93;2.00;;;8.30;99.90;;;;;;5012002;28;20125;-73
2023/03/29 07:16:36;;;;;;;8.45;2.63;;;8.40;99.90;;;;;;5005444;28;20113;-72
2023/03/29 07:19:03;;;;;;;7.82;2.30;;;8.50;99.90;;;;;;5009870;28;20026;-72
2023/03/29 07:21:29;;;;;;;6.40;2.60;;;8.50;99.90;;;;;;5008659;28;20037;-73
2023/03/29 07:23:57;;;;;;;6.38;2.63;;;8.70;99.90;;;;;;5010419;28;20049;-73
2023/03/29 07:26:23;;;;;;;7.43;2.63;;;8.70;99.90;;;;;;5007973;28;20032;-73
2023/03/29 07:28:48;;;;;;;5.90;2.72;;;8.90;99.90;;;;;;5011436;28;20038;-73
2023/03/29 07:31:16;;;;;;;6.22;2.58;;;8.90;99.90;;;;;;5021677;28;20053;-73
2023/03/29 07:33:42;;;;;;;8.02;2.53;;;9.00;99.90;;;;;;5011478;28;20049;-73
2023/03/29 07:36:08;;;;;;;6.22;2.67;;;9.10;99.90;;;;;;5013480;28;20030;-73
2023/03/29 07:38:35;;;;;;;8.20;3.15;;;9.20;99.90;;;;;;5005202;28;20025;-73
2023/03/29 07:41:06;;;;;;;7.97;3.25;;;9.30;99.90;;;;;;5001927;28;20030;-73
2023/03/29 07:43:33;;;;;;;7.75;2.60;;;9.40;99.90;;;;;;4993023;28;20022;-74
2023/03/29 07:46:03;;;;;;;5.07;2.60;;;9.50;99.90;;;;;;5007049;28;20488;-72
2023/03/29 07:48:29;;;;;;;5.82;3.00;;;9.60;99.90;;;;;;5023536;28;20018;-73
2023/03/29 07:50:55;;;;;;;9.98;2.92;;;9.60;99.90;;;;;;5012536;28;20048;-73
2023/03/29 07:53:21;;;;;;;7.82;3.13;;;9.70;99.90;;;;;;5007028;28;20110;-74
2023/03/29 07:55:48;;;;;;;8.15;3.13;;;9.80;99.90;;;;;;5007982;28;20038;-72
2023/03/29 07:58:14;;;;;;;7.55;2.60;;;9.90;99.90;;;;;;5009586;28;20080;-73
2023/03/29 08:00:40;;;;;;;7.10;3.28;;;10.00;99.90;;;;;;4993035;28;20026;-73
2023/03/29 08:03:09;;;;;;;8.77;3.03;;;10.10;99.90;;;;;;5013246;28;20497;-73
2023/03/29 08:05:35;;;;;;;10.32;4.50;;;10.20;99.90;;;;;;5022491;28;20026;-73
2023/03/29 08:08:00;;;;;;;9.55;3.92;;;10.20;99.90;;;;;;5004587;28;20026;-73
2023/03/29 08:10:26;;;;;;;6.47;3.30;;;10.30;99.90;;;;;;5011668;28;20034;-73
2023/03/29 08:12:52;;;;;;;8.85;3.53;;;10.30;99.90;;;;;;5010127;28;20100;-73
2023/03/29 08:15:18;;;;;;;8.45;3.30;;;10.40;99.90;;;;;;5002458;28;20039;-73
2023/03/29 08:17:44;;;;;;;6.95;3.55;;;10.40;99.90;;;;;;5003499;28;20474;-73
2023/03/29 08:20:12;;;;;;;9.43;3.38;;;10.50;99.90;;;;;;5020070;28;20382;-73
2023/03/29 08:22:38;;;;;;;6.38;3.45;;;10.50;99.90;;;;;;5010928;28;20022;-73
2023/03/29 08:25:05;;;;;;;8.98;3.90;;;10.60;99.90;;;;;;5005721;28;20109;-73
2023/03/29 08:27:31;;;;;;;8.13;3.97;;;10.60;99.90;;;;;;5006935;28;20022;-73
2023/03/29 08:29:57;;;;;;;6.95;3.85;;;10.70;99.90;;;;;;5003287;28;20105;-73
2023/03/29 08:32:23;;;;;;;7.28;3.85;;;10.80;99.90;;;;;;5006866;28;20101;-73
2023/03/29 08:34:48;;;;;;;7.18;3.88;;;10.80;99.90;;;;;;5004819;28;20053;-73
2023/03/29 08:37:15;;;;;;;7.30;3.45;;;10.90;99.90;;;;;;5004708;28;20022;-73
2023/03/29 08:39:40;;;;;;;9.18;4.28;;;11.00;99.90;;;;;;5011225;28;20065;-72
2023/03/29 08:42:18;;;;;;;8.43;4.18;;;11.10;99.90;;;;;;5004523;28;20057;-73
2023/03/29 08:44:56;;;;;;;5.88;3.10;;;11.20;99.90;;;;;;5000914;28;20038;-73
2023/03/29 08:47:22;;;;;;;11.32;4.25;;;11.10;99.90;;;;;;5007489;28;20064;-72
2023/03/29 08:49:53;;;;;;;11.13;5.30;;;11.20;99.90;;;;;;5013676;28;20054;-73
2023/03/29 08:52:33;;;;;;;15.82;6.15;;;11.20;99.90;;;;;;5038964;28;20360;-73
2023/03/29 08:55:00;;;;;;;13.38;5.90;;;11.10;99.90;;;;;;4993922;28;20060;-73
2023/03/29 08:57:34;;;;;;;10.18;5.15;;;11.00;99.90;;;;;;5011895;28;20426;-72
2023/03/29 09:00:04;;;;;;;10.75;4.90;;;10.90;99.90;;;;;;5013508;28;20026;-73
2023/03/29 09:02:34;;;;;;;14.32;5.97;;;10.90;99.90;;;;;;5010488;28;20116;-73
2023/03/29 09:05:19;;;;;;;9.95;5.30;;;10.90;99.90;;;;;;5016387;28;20053;-73
2023/03/29 09:07:44;;;;;;;12.32;5.82;;;11.10;99.90;;;;;;5015576;28;20022;-72
2023/03/29 09:10:18;;;;;;;11.27;5.70;;;11.20;99.90;;;;;;5013632;28;20041;-73
2023/03/29 09:13:11;;;;;;;11.63;5.35;;;11.30;99.90;;;;;;5013715;28;20394;-73
2023/03/29 09:16:02;;;;;;;11.45;5.65;;;11.40;99.90;;;;;;5005034;28;20034;-73
2023/03/29 09:19:05;;;;;;;13.88;5.65;;;11.50;99.90;;;;;;5013375;28;20079;-73
2023/03/29 09:21:51;;;;;;;14.25;5.95;;;11.60;99.90;;;;;;5017109;28;20073;-73
2023/03/29 09:24:47;;;;;;;11.13;5.93;;;11.80;99.90;;;;;;5013024;28;20029;-72
2023/03/29 09:27:26;;;;;;;11.05;5.00;;;12.10;99.90;;;;;;4993879;28;20057;-73
2023/03/29 09:30:06;;;;;;;16.20;6.25;;;12.30;99.90;;;;;;4993733;28;20054;-73
2023/03/29 09:32:45;;;;;;;11.73;5.47;;;12.50;99.90;;;;;;5008351;28;20034;-73
2023/03/29 09:35:30;;;;;;;11.43;5.72;;;12.60;99.90;;;;;;5005334;28;20390;-73
2023/03/29 09:37:56;;;;;;;8.43;5.25;;;12.70;99.90;;;;;;5005836;28;20500;-73
2023/03/29 09:40:30;;;;;;;11.48;5.93;;;12.90;99.90;;;;;;5001190;28;20057;-73
2023/03/29 09:42:57;;;;;;;11.00;5.70;;;13.20;99.90;;;;;;5008423;28;20026;-73
2023/03/29 09:45:22;;;;;;;8.75;4.65;;;13.30;99.90;;;;;;4995564;28;20651;-73
2023/03/29 09:48:06;;;;;;;14.60;5.45;;;13.40;99.90;;;;;;5005017;28;20029;-73
2023/03/29 09:50:36;;;;;;;9.13;5.55;;;13.50;99.90;;;;;;5011226;28;20036;-73
2023/03/29 09:53:03;;;;;;;9.35;5.50;;;13.50;99.90;;;;;;5008144;28;20390;-73
2023/03/29 09:55:32;;;;;;;11.65;5.88;;;13.50;99.90;;;;;;4997112;28;20034;-73
2023/03/29 09:58:01;;;;;;;12.35;5.97;;;13.50;99.90;;;;;;5004196;28;20029;-73
2023/03/29 10:00:26;;;;;;;15.57;5.72;;;13.50;99.90;;;;;;5006693;28;20096;-73
2023/03/29 10:02:55;;;;;;;10.80;5.50;;;13.60;99.90;;;;;;5020462;28;20033;-75
2023/03/29 10:05:24;;;;;;;10.07;6.43;;;13.60;99.90;;;;;;5015018;28;20018;-72
2023/03/29 10:07:56;;;;;;;12.07;5.40;;;13.60;99.90;;;;;;5012414;28;20026;-73
2023/03/29 10:10:34;;;;;;;12.70;5.55;;;13.60;99.90;;;;;;4993742;28;20036;-74
2023/03/29 10:13:05;;;;;;;10.70;5.07;;;13.50;99.90;;;;;;4997849;28;20042;-73
2023/03/29 10:15:31;;;;;;;12.43;5.33;;;13.50;99.90;;;;;;5010701;28;20548;-74
2023/03/29 10:18:09;;;;;;;12.52;5.40;;;13.50;99.90;;;;;;5010888;28;20280;-74
2023/03/29 10:20:37;;;;;;;13.43;6.68;;;13.40;99.90;;;;;;5010064;28;20033;-74
2023/03/29 10:23:06;;;;;;;10.00;4.85;;;13.30;99.90;;;;;;5011046;28;20026;-74
2023/03/29 10:25:35;;;;;;;9.18;4.57;;;13.30;99.90;;;;;;5011944;28;20478;-75
2023/03/29 10:28:10;;;;;;;9.98;4.90;;;13.40;99.90;;;;;;5010335;28;20022;-75
2023/03/29 10:30:37;;;;;;;8.90;4.75;;;13.40;99.90;;;;;;5008357;28;20034;-74
2023/03/29 10:33:06;;;;;;;10.75;5.55;;;13.40;99.90;;;;;;5008381;28;20509;-73
2023/03/29 10:35:37;;;;;;;11.10;5.25;;;13.30;99.90;;;;;;5018800;28;20405;-72
2023/03/29 10:38:06;;;;;;;7.70;4.93;;;13.20;99.90;;;;;;5012409;28;20121;-72
2023/03/29 10:40:34;;;;;;;10.27;5.75;;;13.30;99.90;;;;;;5012540;28;20061;-73
2023/03/29 10:43:11;;;;;;;10.40;5.35;;;13.50;99.90;;;;;;5010204;28;20394;-74
2023/03/29 10:45:38;;;;;;;8.15;5.10;;;13.60;99.90;;;;;;5021551;28;20025;-73
2023/03/29 10:48:05;;;;;;;11.32;5.47;;;13.70;99.90;;;;;;5010951;28;20021;-74
2023/03/29 10:50:33;;;;;;;10.40;5.30;;;13.80;99.90;;;;;;5003480;28;20067;-73
2023/03/29 10:52:59;;;;;;;9.50;5.60;;;13.90;99.90;;;;;;4997488;28;20037;-74
2023/03/29 10:55:50;;;;;;;13.30;5.60;;;13.90;99.90;;;;;;5007037;28;20524;-74
2023/03/29 10:58:36;;;;;;;11.43;5.97;;;13.90;99.90;;;;;;5000928;28;20022;-74
2023/03/29 11:01:02;;;;;;;9.90;5.60;;;14.00;99.90;;;;;;5007516;28;20017;-74
2023/03/29 11:03:52;;;;;;;11.20;6.53;;;14.10;99.90;;;;;;4997243;28;20030;-74
2023/03/29 11:07:03;;;;;;;11.68;5.55;;;14.10;99.90;;;;;;5005400;28;20093;-74
2023/03/29 11:09:55;;;;;;;10.40;5.53;;;14.10;99.90;;;;;;5009674;28;20104;-73
2023/03/29 11:12:38;;;;;;;9.70;5.55;;;14.00;99.90;;;;;;4995868;28;20034;-74
2023/03/29 11:15:26;;;;;;;10.88;6.35;;;14.00;99.90;;;;;;5003228;28;20040;-74
2023/03/29 11:18:18;;;;;;;12.32;8.00;;;14.20;99.90;;;;;;5009493;28;20054;-73
2023/03/29 11:21:06;;;;;;;9.82;6.72;;;14.20;99.90;;;;;;5019844;28;20040;-74
2023/03/29 11:24:06;;;;;;;13.43;8.85;;;14.20;99.90;;;;;;4999126;28;20045;-73
2023/03/29 11:26:55;;;;;;;10.20;7.05;;;14.10;99.90;;;;;;5011170;28;20359;-73
2023/03/29 11:29:32;;;;;;;11.48;6.80;;;14.00;99.90;;;;;;4992971;28;20033;-73
2023/03/29 11:32:13;;;;;;;8.45;5.38;;;13.90;99.90;;;;;;5010046;28;20014;-75
2023/03/29 11:34:44;;;;;;;10.48;4.72;;;13.90;99.90;;;;;;5008180;28;20037;-73
2023/03/29 11:37:21;;;;;;;9.80;4.60;;;13.90;99.90;;;;;;4998558;28;20097;-73
2023/03/29 11:40:21;;;;;;;11.60;4.88;;;14.00;99.90;;;;;;5002852;28;20027;-73
2023/03/29 11:42:52;;;;;;;6.78;4.78;;;14.20;99.90;;;;;;4999333;28;20026;-74
2023/03/29 11:45:31;;;;;;;11.07;4.72;;;14.30;99.90;;;;;;5008470;28;20038;-73
2023/03/29 11:47:59;;;;;;;7.80;5.28;;;14.40;99.90;;;;;;5007942;28;20105;-74
2023/03/29 11:50:31;;;;;;;11.70;6.15;;;14.30;99.90;;;;;;5008261;28;20036;-75
2023/03/29 11:53:10;;;;;;;11.65;5.00;;;14.20;99.90;;;;;;5010560;28;20030;-74
2023/03/29 11:55:38;;;;;;;8.90;5.07;;;14.20;99.90;;;;;;5001596;28;20125;-74
2023/03/29 11:58:19;;;;;;;7.50;4.20;;;14.20;99.90;;;;;;5008972;28;20027;-74
2023/03/29 12:00:54;;;;;;;9.85;4.93;;;14.30;99.90;;;;;;5001313;28;20029;-74
2023/03/29 12:03:38;;;;;;;6.93;4.22;;;14.20;99.90;;;;;;5001531;28;20026;-74
2023/03/29 12:06:20;;;;;;;11.65;5.03;;;14.10;99.90;;;;;;5001465;28;20022;-74
2023/03/29 12:08:51;;;;;;;9.15;4.63;;;14.00;99.90;;;;;;5006679;28;20032;-74
2023/03/29 12:11:43;;;;;;;7.65;5.13;;;13.90;99.90;;;;;;5007267;28;20045;-74
2023/03/29 12:14:16;;;;;;;8.50;5.97;;;14.00;99.90;;;;;;5004389;28;20038;-74
2023/03/29 12:17:07;;;;;;;7.05;5.03;;;13.90;99.90;;;;;;5008071;28;20306;-74
2023/03/29 12:19:45;;;;;;;8.20;5.32;;;14.00;99.90;;;;;;5011884;28;20037;-74
2023/03/29 12:22:10;;;;;;;10.10;6.15;;;14.00;99.90;;;;;;5009319;28;20497;-74
2023/03/29 12:24:40;;;;;;;10.55;5.95;;;14.00;99.90;;;;;;5009186;28;20030;-74
2023/03/29 12:27:24;;;;;;;8.60;4.95;;;13.90;99.90;;;;;;5001998;28;20026;-74
2023/03/29 12:30:08;;;;;;;8.52;5.85;;;13.90;99.90;;;;;;5001886;28;20038;-74
2023/03/29 12:32:56;;;;;;;7.93;5.78;;;13.80;99.90;;;;;;5003904;28;20072;-75
2023/03/29 12:36:06;;;;;;;8.13;5.43;;;13.80;99.90;;;;;;5003143;28;20038;-73
2023/03/29 12:38:34;;;;;;;11.82;6.30;;;13.80;99.90;;;;;;5006877;28;20101;-74
2023/03/29 12:41:09;;;;;;;9.32;5.57;;;13.80;99.90;;;;;;5004330;28;20072;-74
2023/03/29 12:43:42;;;;;;;10.63;5.50;;;13.80;99.90;;;;;;5023488;28;20025;-73
2023/03/29 12:46:21;;;;;;;9.48;5.47;;;13.80;99.90;;;;;;4994420;28;20022;-73
2023/03/29 12:48:53;;;;;;;7.97;5.15;;;13.80;99.90;;;;;;5005569;28;20025;-74
2023/03/29 12:51:29;;;;;;;7.85;5.32;;;13.90;99.90;;;;;;5028878;28;20029;-74
2023/03/29 12:54:14;;;;;;;8.43;5.45;;;14.00;99.90;;;;;;5011055;28;20021;-74
2023/03/29 12:56:54;;;;;;;9.70;4.80;;;14.10;99.90;;;;;;5013368;28;20073;-74
2023/03/29 12:59:26;;;;;;;7.25;4.60;;;14.10;99.90;;;;;;5007330;28;20021;-75
2023/03/29 13:02:21;;;;;;;9.50;5.30;;;14.10;99.90;;;;;;5005142;28;20080;-75
2023/03/29 13:04:54;;;;;;;7.82;5.13;;;14.20;99.90;;;;;;5009756;28;20049;-73
2023/03/29 13:07:45;;;;;;;10.45;5.25;;;14.20;99.90;;;;;;5003801;28;20057;-74
2023/03/29 13:10:34;;;;;;;10.55;5.28;;;14.20;99.90;;;;;;5010584;28;20105;-74
2023/03/29 13:13:16;;;;;;;9.23;5.13;;;14.40;99.90;;;;;;5012775;28;20058;-74